Time;durP1;ratioP1;P1;durP2;ratioP2;P2;SDS_P1;SDS_P2;PMS_P1;PMS_P2;Temp;Humidity;BMP_temperature;BMP_pressure;BME280_temperature;BME280_humidity;BME280_pressure;Samples;Min_cycle;Max_cycle;Signal;HPM_P1;HPM_P2
2022/08/12 00:43:48;;;;;;;4.10;1.55;;;;;;;21.10;44.35;101773.81;5156956;27;20042;-75
2022/08/12 00:46:29;;;;;;;2.75;1.70;;;;;;;21.05;44.74;101775.03;5157295;27;20089;-75
2022/08/12 00:48:58;;;;;;;3.58;1.73;;;;;;;21.01;44.65;101777.00;5156864;27;20142;-75
2022/08/12 00:52:05;;;;;;;3.95;2.00;;;;;;;20.98;44.90;101779.91;5156832;27;20038;-75
2022/08/12 00:54:18;;;;;;;2.80;1.60;;;;;;;20.93;45.04;101777.50;5156175;27;20076;-75
2022/08/12 00:56:49;;;;;;;4.03;1.80;;;;;;;20.90;45.12;101771.47;5156827;27;20043;-75
2022/08/12 00:59:16;;;;;;;5.40;1.75;;;;;;;20.86;45.75;101773.44;5156971;27;20097;-75
2022/08/12 01:01:47;;;;;;;4.65;1.92;;;;;;;20.85;45.57;101778.88;5156266;27;20508;-74
2022/08/12 01:13:01;;;;;;;5.82;2.30;;;;;;;20.68;46.53;101778.03;5156176;27;20505;-75
2022/08/12 01:15:49;;;;;;;7.20;2.10;;;;;;;20.64;46.59;101774.69;5156584;27;20084;-75
2022/08/12 01:18:26;;;;;;;3.38;1.90;;;;;;;20.61;46.75;101782.00;5155824;27;20055;-74
2022/08/12 01:21:10;;;;;;;4.43;1.90;;;;;;;20.58;46.87;101777.69;5156247;27;20452;-75
2022/08/12 01:23:58;;;;;;;3.67;1.77;;;;;;;20.56;47.21;101779.59;5156674;27;20183;-74
2022/08/12 01:26:50;;;;;;;5.80;1.80;;;;;;;20.51;47.20;101781.69;5156597;27;20066;-75
2022/08/12 01:29:28;;;;;;;4.43;1.83;;;;;;;20.51;47.40;101781.69;5156633;27;20039;-75
2022/08/12 01:32:07;;;;;;;2.40;1.88;;;;;;;20.48;47.80;101781.84;5156486;27;20131;-75
2022/08/12 01:34:38;;;;;;;7.63;2.00;;;;;;;20.44;47.75;101780.31;5155875;27;20108;-75
2022/08/12 01:37:08;;;;;;;2.72;2.17;;;;;;;20.43;47.79;101774.09;5156036;27;20047;-75
2022/08/12 01:39:51;;;;;;;5.15;2.30;;;;;;;20.43;48.08;101776.78;5156671;27;20508;-75
2022/08/12 01:42:48;;;;;;;2.90;1.83;;;;;;;20.42;48.34;101776.88;5156015;27;20511;-75
2022/08/12 01:45:22;;;;;;;2.95;1.83;;;;;;;20.40;48.40;101784.13;5156050;27;20126;-75
2022/08/12 01:48:03;;;;;;;2.80;1.90;;;;;;;20.37;48.56;101770.91;5155523;27;20527;-75
2022/08/12 01:51:02;;;;;;;3.30;1.85;;;;;;;20.36;48.69;101778.09;5155749;27;20047;-75
2022/08/12 01:54:08;;;;;;;6.35;2.10;;;;;;;20.39;48.81;101777.03;5155710;27;20479;-75
2022/08/12 01:56:47;;;;;;;4.55;1.98;;;;;;;20.38;49.13;101780.66;5152232;27;20142;-75
2022/08/12 01:59:59;;;;;;;5.50;2.08;;;;;;;20.36;49.11;101783.44;5156164;27;20118;-75
2022/08/12 02:02:29;;;;;;;2.53;1.90;;;;;;;20.35;49.32;101784.38;5155318;27;20066;-75
2022/08/12 02:11:31;;;;;;;3.63;1.80;;;;;;;20.21;49.76;101789.63;5155618;27;20039;-75
2022/08/12 02:14:37;;;;;;;3.88;2.08;;;;;;;20.14;49.90;101791.81;5155898;27;20523;-75
2022/08/12 02:17:51;;;;;;;4.03;1.90;;;;;;;20.07;50.00;101791.28;5157965;27;20164;-75
2022/08/12 02:20:40;;;;;;;2.58;1.80;;;;;;;20.03;50.65;101787.06;5159437;27;20039;-75
2022/08/12 02:23:26;;;;;;;3.53;2.25;;;;;;;20.00;50.80;101787.22;5159186;27;20050;-75
2022/08/12 02:26:05;;;;;;;5.40;2.15;;;;;;;19.97;51.08;101784.72;5159215;27;20036;-75
2022/08/12 02:28:36;;;;;;;3.97;2.28;;;;;;;19.94;51.17;101782.22;5159341;27;20043;-75
2022/08/12 02:31:07;;;;;;;2.58;1.83;;;;;;;19.93;51.30;101786.72;5159018;27;20088;-75
2022/08/12 02:33:37;;;;;;;5.10;1.92;;;;;;;19.89;51.38;101784.28;5159208;27;20066;-75
2022/08/12 02:36:05;;;;;;;5.57;2.60;;;;;;;19.86;51.72;101779.94;5159404;27;20122;-75
2022/08/12 02:38:33;;;;;;;4.63;2.38;;;;;;;19.83;51.88;101783.63;5158926;27;20046;-75
2022/08/12 02:41:04;;;;;;;4.05;2.10;;;;;;;19.75;51.97;101777.84;5158654;27;20092;-75
2022/08/12 02:43:49;;;;;;;4.38;2.22;;;;;;;19.75;51.95;101775.16;5159154;27;20043;-75
2022/08/12 02:46:33;;;;;;;4.30;2.15;;;;;;;19.71;52.25;101776.25;5158857;27;20062;-74
2022/08/12 02:49:09;;;;;;;4.45;2.22;;;;;;;19.69;52.24;101775.47;5158884;27;20035;-75
2022/08/12 02:51:43;;;;;;;5.05;2.20;;;;;;;19.65;52.49;101780.13;5158353;27;20406;-75
2022/08/12 02:54:10;;;;;;;3.95;2.28;;;;;;;19.61;52.63;101777.72;5158781;27;20142;-74
2022/08/12 02:56:41;;;;;;;6.13;2.00;;;;;;;19.55;52.91;101776.22;5158942;27;20114;-75
2022/08/12 02:59:21;;;;;;;4.45;2.05;;;;;;;19.49;53.14;101772.06;5159232;27;20043;-74
2022/08/12 03:01:52;;;;;;;4.00;2.00;;;;;;;19.43;53.19;101764.38;5158747;27;20122;-74
2022/08/12 03:04:46;;;;;;;6.18;2.47;;;;;;;19.43;53.84;101767.06;5158417;27;20039;-75
2022/08/12 03:07:22;;;;;;;5.32;2.15;;;;;;;19.36;53.79;101766.50;5158562;27;20040;-75
2022/08/12 03:10:11;;;;;;;3.30;2.10;;;;;;;19.30;53.83;101764.19;5158575;27;20035;-75
2022/08/12 03:12:45;;;;;;;4.53;2.10;;;;;;;19.26;54.09;101764.41;5158486;27;20047;-75
2022/08/12 03:15:22;;;;;;;4.95;2.08;;;;;;;19.24;54.48;101767.16;5157931;27;20136;-75
2022/08/12 03:18:27;;;;;;;4.72;2.00;;;;;;;19.17;54.89;101769.31;5158177;27;20572;-76
2022/08/12 03:20:58;;;;;;;3.63;2.38;;;;;;;19.10;55.13;101767.88;5158214;27;20521;-75
2022/08/12 03:23:28;;;;;;;3.67;2.25;;;;;;;19.07;55.50;101758.22;5158052;27;20082;-75
2022/08/12 03:26:00;;;;;;;5.25;2.25;;;;;;;19.03;55.69;101763.81;5158289;27;20039;-75
2022/08/12 03:31:27;;;;;;;2.95;2.50;;;;;;;18.88;56.29;101766.28;5158243;27;20117;-75
2022/08/12 03:34:01;;;;;;;5.80;2.70;;;;;;;18.85;56.60;101765.56;5158092;27;20041;-75
2022/08/12 03:36:33;;;;;;;4.43;2.38;;;;;;;18.76;57.00;101756.22;5158185;27;20567;-75
2022/08/12 03:41:58;;;;;;;4.10;2.60;;;;;;;18.66;57.46;101763.81;5157800;27;20117;-76
2022/08/12 04:01:29;;;;;;;4.97;2.80;;;;;;;18.39;59.37;101758.03;5157625;27;20047;-75
2022/08/12 04:03:58;;;;;;;4.80;2.53;;;;;;;18.35;59.34;101764.47;5157622;27;20067;-75
2022/08/12 04:06:29;;;;;;;4.30;2.83;;;;;;;18.33;59.61;101774.38;5157101;27;20452;-75
2022/08/12 04:09:04;;;;;;;4.88;2.80;;;;;;;18.28;59.78;101772.75;5157845;27;20043;-75
2022/08/12 04:14:32;;;;;;;5.40;2.72;;;;;;;18.22;59.92;101767.72;5157545;27;20545;-75
2022/08/12 04:17:02;;;;;;;4.93;3.10;;;;;;;18.21;60.21;101768.66;5157278;27;20053;-75
2022/08/12 04:19:30;;;;;;;5.43;3.30;;;;;;;18.19;60.05;101778.53;5157260;27;20039;-75
2022/08/12 04:21:57;;;;;;;4.90;3.28;;;;;;;18.19;60.03;101777.69;5156285;27;20039;-75
2022/08/12 04:24:33;;;;;;;5.50;2.80;;;;;;;18.18;60.04;101770.63;5157400;27;20031;-75
2022/08/12 04:27:07;;;;;;;7.03;2.90;;;;;;;18.20;60.31;101768.75;5157336;27;20074;-75
2022/08/12 04:29:37;;;;;;;5.50;3.23;;;;;;;18.19;60.44;101767.88;5157361;27;20047;-75
2022/08/12 04:32:24;;;;;;;4.95;2.72;;;;;;;18.18;60.57;101768.81;5156586;27;20035;-75
2022/08/12 04:34:53;;;;;;;6.72;3.60;;;;;;;18.17;60.87;101767.06;5157470;27;20059;-75
2022/08/12 04:37:20;;;;;;;4.82;3.42;;;;;;;18.15;60.86;101764.50;5157062;27;20484;-75
2022/08/12 04:39:47;;;;;;;7.55;3.17;;;;;;;18.14;60.94;101759.25;5156484;27;20504;-75
2022/08/12 04:42:15;;;;;;;6.70;3.17;;;;;;;18.22;61.08;101765.06;5156537;27;20051;-75
2022/08/12 04:44:43;;;;;;;8.48;3.42;;;;;;;18.33;60.70;101763.69;5157101;27;20039;-75
2022/08/12 04:47:15;;;;;;;5.13;3.55;;;;;;;18.28;60.88;101759.41;5156878;27;20050;-75
2022/08/12 04:49:45;;;;;;;4.20;3.35;;;;;;;18.22;60.88;101758.84;5157099;27;20043;-75
2022/08/12 04:52:13;;;;;;;5.45;3.50;;;;;;;18.33;60.98;101761.03;5156595;27;20046;-75
2022/08/12 04:54:42;;;;;;;5.10;3.67;;;;;;;18.36;60.89;101763.53;5157184;27;20560;-75
2022/08/12 04:57:09;;;;;;;4.93;3.67;;;;;;;18.31;60.99;101764.63;5156871;27;20047;-75
2022/08/12 04:59:37;;;;;;;5.45;3.70;;;;;;;18.29;61.13;101763.81;5156685;27;20043;-75
2022/08/12 05:02:19;;;;;;;5.53;3.63;;;;;;;18.33;61.07;101769.03;5156803;27;20110;-75
2022/08/12 05:04:50;;;;;;;6.20;4.03;;;;;;;18.33;61.13;101764.53;5156265;27;20514;-75
2022/08/12 05:07:19;;;;;;;4.60;3.78;;;;;;;18.39;61.04;101769.59;5156519;27;20104;-75
2022/08/12 05:09:47;;;;;;;7.38;3.72;;;;;;;18.49;60.91;101771.81;5156535;27;20043;-75
2022/08/12 05:12:40;;;;;;;6.55;3.97;;;;;;;18.49;60.94;101767.31;5156702;27;20054;-75
2022/08/12 05:15:08;;;;;;;11.43;3.72;;;;;;;18.53;60.78;101774.25;5156525;27;20051;-75
2022/08/12 05:17:46;;;;;;;6.28;3.97;;;;;;;18.61;60.72;101782.75;5155934;27;20625;-75
2022/08/12 05:20:18;;;;;;;5.22;3.60;;;;;;;18.66;60.52;101782.53;5156648;27;20461;-75
2022/08/12 05:22:45;;;;;;;8.02;3.65;;;;;;;18.81;60.15;101778.22;5155956;27;20545;-75
2022/08/12 05:25:14;;;;;;;7.93;4.05;;;;;;;18.92;59.87;101788.38;5156565;27;20039;-75
2022/08/12 05:27:44;;;;;;;5.60;3.90;;;;;;;19.12;59.20;101782.03;5156413;27;20039;-75
2022/08/12 05:30:27;;;;;;;5.60;4.05;;;;;;;19.44;58.44;101775.94;5156063;27;20036;-75
2022/08/12 05:32:54;;;;;;;4.80;3.90;;;;;;;19.89;57.53;101787.81;5156476;27;20555;-74
2022/08/12 05:35:26;;;;;;;7.75;4.15;;;;;;;21.62;53.67;101778.75;5156140;27;20502;-75
2022/08/12 05:38:55;;;;;;;5.63;3.92;;;;;;;23.58;48.79;101764.97;5156124;27;20031;-75
2022/08/12 05:40:41;;;;;;;6.95;3.40;;;;;;;25.21;44.33;101770.03;5156141;27;20123;-74
2022/08/12 05:43:08;;;;;;;5.88;3.42;;;;;;;26.29;42.06;101774.09;5155459;27;20047;-75
2022/08/12 05:45:35;;;;;;;5.00;3.53;;;;;;;27.10;40.07;101770.06;5156229;27;20565;-75
2022/08/12 05:48:07;;;;;;;6.93;3.50;;;;;;;27.77;38.22;101764.28;5156075;27;20042;-75
2022/08/12 05:50:35;;;;;;;8.63;3.70;;;;;;;28.23;36.78;101770.13;5154440;27;20039;-75
2022/08/12 05:53:02;;;;;;;5.80;3.60;;;;;;;28.52;36.16;101776.44;5155949;27;20063;-75
2022/08/12 05:55:30;;;;;;;7.65;3.00;;;;;;;28.00;36.13;101773.88;5156067;27;20066;-75
2022/08/12 05:57:57;;;;;;;6.97;3.75;;;;;;;26.10;39.51;101773.88;5155874;27;20054;-75
2022/08/12 06:00:25;;;;;;;5.40;3.60;;;;;;;24.44;42.48;101790.19;5155924;27;20062;-75
2022/08/12 06:02:59;;;;;;;9.30;3.42;;;;;;;23.35;44.87;101794.34;5155594;27;20119;-75
2022/08/12 06:05:35;;;;;;;5.85;3.47;;;;;;;22.63;47.29;101790.22;5155781;27;20127;-75
2022/08/12 06:08:24;;;;;;;6.03;4.03;;;;;;;22.11;48.39;101793.59;5155564;27;20070;-75
2022/08/12 06:10:52;;;;;;;8.77;3.72;;;;;;;21.84;49.33;101799.75;5155453;27;20126;-75
2022/08/12 06:13:19;;;;;;;7.10;3.45;;;;;;;21.63;50.48;101799.28;5155680;27;20070;-75
2022/08/12 06:15:55;;;;;;;5.47;3.55;;;;;;;21.55;50.71;101802.38;5155300;27;20117;-75
2022/08/12 06:18:22;;;;;;;5.38;3.53;;;;;;;21.53;50.78;101804.28;5155507;27;20503;-75
2022/08/12 06:20:58;;;;;;;5.13;3.47;;;;;;;21.53;51.01;101804.28;5155716;27;20074;-75
2022/08/12 06:23:28;;;;;;;5.93;3.78;;;;;;;21.54;50.81;101795.28;5155204;27;20074;-75
2022/08/12 06:25:57;;;;;;;5.70;3.80;;;;;;;21.56;50.85;101793.38;5155525;27;20077;-75
2022/08/12 06:28:25;;;;;;;5.95;3.55;;;;;;;21.61;50.96;101793.13;5155581;27;20055;-75
2022/08/12 06:30:52;;;;;;;7.30;4.07;;;;;;;21.64;50.81;101793.81;5155420;27;20518;-75
2022/08/12 06:33:43;;;;;;;8.00;4.10;;;;;;;21.70;50.36;101795.25;5155290;27;20049;-75
2022/08/12 06:36:26;;;;;;;5.53;3.80;;;;;;;21.76;50.41;101784.16;5155537;27;20040;-75
2022/08/12 06:38:58;;;;;;;7.05;3.67;;;;;;;21.86;50.22;101785.28;5155239;27;20045;-75
2022/08/12 06:44:31;;;;;;;5.45;3.80;;;;;;;22.10;49.39;101790.03;5154827;27;20047;-75
2022/08/12 06:46:59;;;;;;;8.15;3.92;;;;;;;22.17;49.04;101785.13;5155681;27;20220;-75
2022/08/12 06:49:32;;;;;;;6.18;3.40;;;;;;;22.29;48.95;101783.47;5155150;27;20417;-75
2022/08/12 06:51:59;;;;;;;5.53;3.23;;;;;;;22.44;48.70;101778.94;5155215;27;20047;-75
2022/08/12 06:54:29;;;;;;;8.85;3.60;;;;;;;22.55;48.64;101795.22;5155119;27;20070;-75
2022/08/12 06:57:00;;;;;;;5.32;3.55;;;;;;;22.67;48.14;101782.81;5155675;27;20063;-75
2022/08/12 06:59:47;;;;;;;6.55;3.63;;;;;;;22.80;47.48;101780.16;5155154;27;20043;-75
2022/08/12 07:02:14;;;;;;;4.30;3.15;;;;;;;22.91;47.35;101774.03;5156609;27;20035;-75
2022/08/12 07:04:42;;;;;;;7.90;3.30;;;;;;;23.04;47.08;101777.59;5158984;27;20049;-75
2022/08/12 07:07:09;;;;;;;5.55;3.42;;;;;;;23.20;46.16;101774.75;5158072;27;20047;-76
2022/08/12 07:09:38;;;;;;;7.85;3.50;;;;;;;23.30;46.11;101768.72;5158831;27;20039;-76
2022/08/12 07:12:26;;;;;;;9.75;3.33;;;;;;;23.46;45.10;101774.75;5158390;27;20035;-75
2022/08/12 07:15:00;;;;;;;9.68;3.30;;;;;;;23.56;45.32;101775.81;5158387;27;20050;-75
2022/08/12 07:17:34;;;;;;;6.75;3.33;;;;;;;23.69;44.98;101781.22;5157931;27;20520;-75
2022/08/12 07:20:10;;;;;;;7.70;3.58;;;;;;;23.85;44.11;101772.03;5158649;27;20042;-75
2022/08/12 07:22:59;;;;;;;7.18;3.30;;;;;;;23.99;44.77;101787.19;5158441;27;20046;-75
2022/08/12 07:25:30;;;;;;;6.75;3.25;;;;;;;24.10;44.72;101781.06;5157946;27;20137;-75
2022/08/12 07:28:22;;;;;;;4.43;2.80;;;;;;;24.26;43.86;101789.72;5158011;27;20540;-76
2022/08/12 07:30:52;;;;;;;7.38;3.00;;;;;;;24.39;43.39;101795.03;5157858;27;20035;-76
2022/08/12 07:33:24;;;;;;;9.18;3.20;;;;;;;24.53;42.48;101791.31;5158760;27;20065;-76
2022/08/12 07:35:52;;;;;;;4.38;2.83;;;;;;;24.67;42.24;101790.31;5139690;27;20991;-75
2022/08/12 07:38:34;;;;;;;8.52;2.67;;;;;;;24.78;41.70;101784.97;5158292;27;20100;-76
2022/08/12 07:41:07;;;;;;;4.88;3.10;;;;;;;24.93;41.58;101787.47;5157983;27;20340;-75
2022/08/12 07:43:48;;;;;;;13.02;2.65;;;;;;;25.08;41.36;101790.84;5157839;27;20053;-75
2022/08/12 07:46:21;;;;;;;9.23;2.58;;;;;;;25.23;40.80;101797.72;5157992;27;20039;-75
2022/08/12 07:48:53;;;;;;;6.22;3.35;;;;;;;25.36;40.50;101786.84;5158089;27;20043;-76
2022/08/12 07:51:23;;;;;;;9.75;2.80;;;;;;;25.54;40.62;101791.78;5157680;27;20037;-75
2022/08/12 07:53:56;;;;;;;4.15;2.60;;;;;;;25.67;39.86;101795.25;5157825;27;20114;-75
2022/08/12 07:56:30;;;;;;;5.72;2.63;;;;;;;25.89;38.85;101788.13;5158323;27;20116;-75
2022/08/12 07:58:59;;;;;;;5.40;2.50;;;;;;;25.94;38.64;101791.28;5157508;27;20092;-76
2022/08/12 08:01:27;;;;;;;11.63;2.85;;;;;;;26.02;38.64;101796.09;5157860;27;20044;-75
2022/08/12 08:06:46;;;;;;;7.60;2.75;;;;;;;26.24;38.08;101797.06;5157725;27;20046;-76
2022/08/12 08:09:17;;;;;;;7.15;2.70;;;;;;;26.37;37.78;101799.59;5157335;27;20518;-76
2022/08/12 08:14:31;;;;;;;7.75;2.47;;;;;;;26.63;37.97;101802.84;5156406;27;20044;-75
2022/08/12 08:17:02;;;;;;;7.78;2.70;;;;;;;26.76;36.95;101795.38;5157393;27;20059;-76
2022/08/12 08:19:32;;;;;;;6.60;2.83;;;;;;;26.83;36.89;101794.91;5157408;27;20046;-76
2022/08/12 08:22:21;;;;;;;5.00;2.40;;;;;;;26.92;36.43;101792.28;5157465;27;20492;-75
2022/08/12 08:25:10;;;;;;;12.73;2.80;;;;;;;27.08;36.21;101794.53;5156905;27;20496;-75
2022/08/12 08:28:09;;;;;;;4.95;2.30;;;;;;;27.18;34.89;101791.91;5157416;27;20058;-75
2022/08/12 08:30:43;;;;;;;7.90;2.75;;;;;;;27.35;35.50;101785.00;5156674;27;20608;-76
2022/08/12 08:33:14;;;;;;;5.32;2.55;;;;;;;27.52;35.53;101791.66;5157295;27;20043;-76
2022/08/12 08:36:01;;;;;;;6.82;2.40;;;;;;;27.70;35.01;101788.34;5157260;27;20507;-75
2022/08/12 08:38:28;;;;;;;8.15;2.63;;;;;;;27.87;34.04;101794.97;5156622;27;20050;-75
2022/08/12 08:44:09;;;;;;;5.18;2.40;;;;;;;28.14;33.58;101793.50;5157050;27;20039;-76
2022/08/12 08:46:39;;;;;;;9.40;2.30;;;;;;;28.27;33.45;101791.41;5156935;27;20043;-76
2022/08/12 08:49:07;;;;;;;8.40;2.47;;;;;;;28.41;32.15;101790.13;5156391;27;20043;-76
2022/08/12 08:51:35;;;;;;;6.55;1.98;;;;;;;28.50;31.49;101789.28;5157066;27;20046;-76
2022/08/12 08:54:02;;;;;;;4.30;1.90;;;;;;;28.61;31.43;101790.13;5156974;27;20035;-76
2022/08/12 08:56:29;;;;;;;7.07;2.03;;;;;;;28.70;30.85;101791.09;5156900;27;20117;-76
2022/08/12 08:58:57;;;;;;;14.35;2.53;;;;;;;28.73;31.77;101790.88;5156125;27;20042;-76
2022/08/12 09:01:25;;;;;;;3.25;2.03;;;;;;;28.85;31.84;101797.00;5156790;27;20039;-76
2022/08/12 09:04:06;;;;;;;6.60;2.33;;;;;;;28.95;31.83;101801.44;5157116;27;20047;-75
2022/08/12 09:06:57;;;;;;;5.97;2.10;;;;;;;29.07;31.74;101795.84;5156150;27;20040;-76
2022/08/12 09:09:26;;;;;;;5.15;2.45;;;;;;;29.17;31.33;101791.25;5156752;27;20082;-76
2022/08/12 09:15:03;;;;;;;7.35;2.10;;;;;;;29.34;29.46;101789.66;5156758;27;20055;-76
2022/08/12 09:17:55;;;;;;;12.88;2.33;;;;;;;29.41;29.51;101785.34;5156213;27;20503;-76
2022/08/12 09:20:28;;;;;;;6.30;2.10;;;;;;;29.50;28.89;101780.03;5156215;27;20568;-76
2022/08/12 09:22:56;;;;;;;9.23;2.15;;;;;;;29.63;29.66;101788.72;5156372;27;20065;-75
2022/08/12 09:25:25;;;;;;;6.30;1.90;;;;;;;29.75;29.63;101783.91;5156098;27;20039;-75
2022/08/12 09:28:01;;;;;;;7.00;2.50;;;;;;;29.85;29.55;101783.88;5156647;27;20547;-76
2022/08/12 09:30:32;;;;;;;6.80;2.13;;;;;;;29.95;29.31;101781.13;5156326;27;20039;-76
2022/08/12 09:33:11;;;;;;;7.30;2.00;;;;;;;30.06;28.59;101775.50;5155575;27;20039;-75
2022/08/12 09:35:46;;;;;;;6.28;1.80;;;;;;;30.15;28.29;101771.00;5156050;27;20051;-76
2022/08/12 09:38:32;;;;;;;5.55;1.80;;;;;;;30.22;28.21;101774.81;5156301;27;20496;-75
2022/08/12 09:41:02;;;;;;;4.70;1.90;;;;;;;30.36;28.08;101776.13;5155228;27;20062;-75
2022/08/12 09:46:56;;;;;;;5.47;1.92;;;;;;;30.56;27.41;101766.00;5156178;27;20043;-76
2022/08/12 09:49:24;;;;;;;4.75;2.22;;;;;;;30.62;26.31;101762.66;5155661;27;20043;-76
2022/08/12 09:51:53;;;;;;;4.15;1.85;;;;;;;30.68;26.52;101764.72;5156188;27;20466;-76
2022/08/12 09:54:24;;;;;;;7.32;1.77;;;;;;;30.76;27.10;101758.50;5155867;27;20081;-75
2022/08/12 09:57:16;;;;;;;4.18;1.77;;;;;;;30.90;25.79;101757.06;5155581;27;20043;-75
2022/08/12 10:00:11;;;;;;;4.32;1.60;;;;;;;30.99;25.14;101753.41;5156070;27;20553;-76
2022/08/12 10:03:05;;;;;;;9.95;2.00;;;;;;;31.08;24.83;101758.91;5155654;27;20108;-75
2022/08/12 10:05:37;;;;;;;6.07;1.63;;;;;;;31.12;25.43;101755.75;5155898;27;20039;-75
2022/08/12 10:08:29;;;;;;;4.07;1.70;;;;;;;31.17;25.94;101759.84;5155986;27;20480;-75
2022/08/12 10:13:51;;;;;;;5.40;1.80;;;;;;;31.34;24.14;101741.72;5155579;27;20047;-75
2022/08/12 10:16:32;;;;;;;4.60;2.15;;;;;;;31.37;24.76;101735.97;5155848;27;20031;-76
2022/08/12 10:19:05;;;;;;;5.70;2.20;;;;;;;31.50;25.13;101738.22;5155797;27;20043;-76
2022/08/12 10:21:44;;;;;;;5.18;2.00;;;;;;;31.62;24.12;101738.78;5155402;27;20035;-76
2022/08/12 10:24:21;;;;;;;5.20;1.88;;;;;;;31.62;24.39;101730.59;5155486;27;20071;-75
2022/08/12 10:29:43;;;;;;;3.60;1.73;;;;;;;31.70;24.43;101726.09;5155754;27;20039;-75
2022/08/12 10:32:30;;;;;;;4.28;1.60;;;;;;;31.82;22.84;101736.69;5155391;27;20035;-76
2022/08/12 10:35:17;;;;;;;2.75;1.70;;;;;;;31.83;23.17;101735.66;5154675;27;20039;-76
2022/08/12 10:37:45;;;;;;;7.47;1.90;;;;;;;31.85;24.22;101712.66;5157591;27;20045;-75
2022/08/12 10:40:33;;;;;;;3.75;1.83;;;;;;;31.95;22.92;101717.97;5159244;27;20031;-76
2022/08/12 10:45:55;;;;;;;6.65;1.70;;;;;;;32.05;23.18;101704.19;5159010;27;20113;-76
2022/08/12 10:48:25;;;;;;;3.83;1.73;;;;;;;32.13;23.70;101698.75;5158546;27;20035;-75
2022/08/12 10:51:04;;;;;;;2.55;1.60;;;;;;;32.27;23.81;101708.16;5158597;27;20044;-76
2022/08/12 10:53:55;;;;;;;2.63;1.80;;;;;;;32.34;23.51;101697.41;5158789;27;20039;-75
2022/08/12 10:56:31;;;;;;;5.20;1.90;;;;;;;32.40;23.40;101698.63;5157876;27;20077;-75
2022/08/12 10:59:04;;;;;;;5.65;2.10;;;;;;;32.47;23.77;101692.31;5158600;27;20039;-75
2022/08/12 11:01:39;;;;;;;4.25;1.60;;;;;;;32.59;21.49;101684.63;5158720;27;20088;-75
2022/08/12 11:04:29;;;;;;;3.22;1.80;;;;;;;32.45;21.64;101686.16;5158588;27;20088;-74
2022/08/12 11:07:16;;;;;;;2.40;1.63;;;;;;;32.41;21.35;101682.06;5158714;27;20071;-74
2022/08/12 11:10:04;;;;;;;6.20;1.77;;;;;;;32.32;21.63;101680.38;5158343;27;20051;-75
2022/08/12 11:12:32;;;;;;;4.95;1.92;;;;;;;32.32;22.58;101675.78;5158219;27;20353;-75
2022/08/12 11:15:20;;;;;;;3.42;2.00;;;;;;;32.47;22.44;101673.22;5158115;27;20523;-76
2022/08/12 11:18:07;;;;;;;6.03;1.90;;;;;;;32.60;22.81;101667.22;5157878;27;20059;-75
2022/08/12 11:20:43;;;;;;;3.65;1.70;;;;;;;32.74;22.79;101660.19;5158499;27;20076;-75
2022/08/12 11:23:11;;;;;;;8.82;2.10;;;;;;;32.86;22.34;101663.47;5158298;27;20074;-75
2022/08/12 11:25:58;;;;;;;9.70;1.98;;;;;;;32.93;21.82;101655.41;5158104;27;20050;-76
2022/08/12 11:28:32;;;;;;;6.22;1.60;;;;;;;32.89;22.91;101654.06;5157681;27;20031;-75
2022/08/12 11:31:07;;;;;;;6.00;1.80;;;;;;;32.98;23.00;101647.56;5158336;27;20457;-76
2022/08/12 11:33:42;;;;;;;2.35;1.75;;;;;;;33.11;22.02;101655.19;5158286;27;20039;-75
2022/08/12 11:36:29;;;;;;;5.30;1.95;;;;;;;33.07;22.07;101646.50;5158090;27;20504;-75
2022/08/12 11:38:57;;;;;;;3.13;1.70;;;;;;;33.03;21.50;101650.59;5158000;27;20043;-74
2022/08/12 11:41:33;;;;;;;4.43;1.48;;;;;;;32.97;21.28;101643.13;5158137;27;20067;-75
2022/08/12 11:44:01;;;;;;;3.67;1.50;;;;;;;32.98;21.86;101639.38;5157894;27;20039;-76
2022/08/12 11:46:52;;;;;;;5.30;1.65;;;;;;;33.13;21.62;101642.22;5157972;27;20305;-76
2022/08/12 11:49:25;;;;;;;8.95;1.90;;;;;;;33.22;21.92;101630.22;5158102;27;20492;-75
2022/08/12 11:52:00;;;;;;;3.85;1.80;;;;;;;33.35;21.93;101634.28;5157958;27;20035;-76
2022/08/12 11:54:29;;;;;;;4.15;1.90;;;;;;;33.50;21.31;101627.03;5157844;27;20043;-75
2022/08/12 11:57:00;;;;;;;3.88;1.70;;;;;;;33.57;21.31;101628.03;5157772;27;20195;-74
2022/08/12 11:59:48;;;;;;;3.67;1.70;;;;;;;33.74;20.88;101625.16;5157539;27;20046;-76
2022/08/12 12:02:38;;;;;;;3.53;1.70;;;;;;;33.71;20.53;101618.19;5157412;27;20043;-75
2022/08/12 12:05:06;;;;;;;2.50;1.60;;;;;;;33.74;20.82;101614.25;5157223;27;20468;-75
2022/08/12 12:07:41;;;;;;;3.33;1.77;;;;;;;33.88;19.76;101612.63;5157720;27;20122;-75
2022/08/12 12:10:28;;;;;;;2.95;1.30;;;;;;;33.88;18.76;101607.16;5157691;27;20629;-77
2022/08/12 12:12:55;;;;;;;2.58;1.73;;;;;;;33.64;19.30;101625.41;5158058;27;20119;-75
2022/08/12 12:15:22;;;;;;;4.10;1.77;;;;;;;33.53;19.53;101609.41;5157523;27;20039;-75
2022/08/12 12:18:03;;;;;;;6.88;1.50;;;;;;;33.42;19.45;101607.94;5156536;27;20047;-75
2022/08/12 12:20:30;;;;;;;2.40;1.60;;;;;;;33.33;19.00;101603.53;5157731;27;20035;-74
2022/08/12 12:22:57;;;;;;;3.10;1.60;;;;;;;33.32;19.95;101608.16;5157117;27;20479;-75
2022/08/12 12:25:24;;;;;;;4.75;1.50;;;;;;;33.51;19.74;101612.34;5157708;27;20046;-74
2022/08/12 12:28:12;;;;;;;6.05;1.60;;;;;;;33.59;19.29;101604.06;5157143;27;20042;-75
2022/08/12 12:31:01;;;;;;;3.47;1.63;;;;;;;33.61;19.17;101606.66;5157337;27;20046;-75
2022/08/12 12:33:30;;;;;;;1.95;1.30;;;;;;;33.73;18.49;101607.06;5157060;27;20035;-75
2022/08/12 12:36:17;;;;;;;3.33;1.40;;;;;;;33.75;18.76;101596.81;5157457;27;20043;-76
2022/08/12 12:38:55;;;;;;;1.45;1.25;;;;;;;33.81;18.40;101600.69;5156564;27;20043;-75
2022/08/12 12:41:22;;;;;;;2.83;1.50;;;;;;;33.68;18.88;101591.22;5157131;27;20043;-75
2022/08/12 12:44:09;;;;;;;2.63;1.40;;;;;;;33.68;18.81;101593.94;5156941;27;20408;-75
2022/08/12 12:46:51;;;;;;;3.45;1.73;;;;;;;33.66;18.15;101579.59;5157046;27;20494;-76
2022/08/12 12:49:20;;;;;;;2.75;1.38;;;;;;;33.69;18.38;101592.06;5157017;27;20511;-75
2022/08/12 12:51:53;;;;;;;2.20;1.42;;;;;;;33.67;18.31;101589.50;5157254;27;20459;-75
2022/08/12 12:54:51;;;;;;;6.32;1.80;;;;;;;33.60;19.05;101586.66;5156930;27;20032;-75
2022/08/12 12:57:19;;;;;;;2.15;1.60;;;;;;;33.79;18.38;101575.41;5156823;27;20377;-76
2022/08/12 13:00:14;;;;;;;5.07;1.50;;;;;;;33.88;18.86;101575.19;5156082;27;20039;-75
2022/08/12 13:02:51;;;;;;;3.88;1.33;;;;;;;33.99;18.81;101565.72;5156266;27;20468;-75
2022/08/12 13:05:38;;;;;;;2.05;1.40;;;;;;;34.10;18.84;101569.88;5156713;27;20039;-75
2022/08/12 13:08:37;;;;;;;5.25;1.40;;;;;;;34.21;18.17;101557.66;5156518;27;20100;-75
2022/08/12 13:11:06;;;;;;;3.70;1.63;;;;;;;34.25;18.46;101566.31;5138882;27;20054;-75
2022/08/12 13:13:35;;;;;;;5.60;1.50;;;;;;;34.24;18.44;101565.47;5156000;27;20043;-75
2022/08/12 13:16:25;;;;;;;5.72;1.30;;;;;;;34.25;18.20;101558.94;5156059;27;20076;-75
2022/08/12 13:18:53;;;;;;;6.70;1.60;;;;;;;34.27;18.19;101564.25;5156244;27;20122;-75
2022/08/12 13:21:24;;;;;;;3.10;1.58;;;;;;;34.27;18.39;101562.34;5155420;27;20069;-76
2022/08/12 13:24:02;;;;;;;4.28;1.55;;;;;;;34.34;18.48;101555.09;5156972;27;20050;-75
2022/08/12 13:26:38;;;;;;;4.43;1.40;;;;;;;34.51;18.00;101549.50;5156328;27;20039;-75
2022/08/12 13:29:06;;;;;;;2.30;1.40;;;;;;;34.52;18.12;101546.56;5156063;27;20047;-75
2022/08/12 13:31:40;;;;;;;4.03;1.67;;;;;;;34.49;18.01;101548.81;5156042;27;20039;-75
2022/08/12 13:34:28;;;;;;;2.95;1.40;;;;;;;34.52;17.64;101553.94;5155918;27;20043;-75
2022/08/12 13:37:03;;;;;;;1.40;1.30;;;;;;;34.40;17.82;101547.22;5156240;27;20112;-75
2022/08/12 13:39:37;;;;;;;2.45;1.40;;;;;;;34.32;17.79;101548.97;5155544;27;20512;-75
2022/08/12 13:42:08;;;;;;;1.92;1.38;;;;;;;34.29;17.79;101552.09;5156390;27;20074;-75
2022/08/12 13:44:42;;;;;;;1.75;1.42;;;;;;;34.24;17.91;101551.78;5156014;27;20122;-75
2022/08/12 13:47:12;;;;;;;2.10;1.42;;;;;;;34.20;18.33;101539.53;5156180;27;20045;-75
2022/08/12 13:49:49;;;;;;;3.45;1.55;;;;;;;34.25;18.22;101531.59;5155609;27;20043;-75
2022/08/12 13:52:23;;;;;;;3.60;1.30;;;;;;;34.31;18.65;101541.81;5155989;27;20046;-76
2022/08/12 13:54:51;;;;;;;2.17;1.40;;;;;;;34.32;17.75;101540.78;5155563;27;20045;-75